sensor_id;sensor_type;location;lat;lon;timestamp;pressure;altitude;pressure_sealevel;temperature;humidity
64158;BME280;50449;51.528;5.076;2022-12-10T00:01:25;100743.06;;;3.74;64.11
64158;BME280;50449;51.528;5.076;2022-12-10T00:03:51;100746.78;;;3.73;64.21
64158;BME280;50449;51.528;5.076;2022-12-10T00:06:19;100739.75;;;3.72;64.42
64158;BME280;50449;51.528;5.076;2022-12-10T00:08:45;100747.78;;;3.72;64.26
64158;BME280;50449;51.528;5.076;2022-12-10T00:11:12;100742.66;;;3.71;64.16
64158;BME280;50449;51.528;5.076;2022-12-10T00:13:39;100745.31;;;3.71;64.59
64158;BME280;50449;51.528;5.076;2022-12-10T00:16:07;100747.34;;;3.68;64.28
64158;BME280;50449;51.528;5.076;2022-12-10T00:18:34;100751.66;;;3.69;64.11
64158;BME280;50449;51.528;5.076;2022-12-10T00:21:05;100751.88;;;3.68;64.18
64158;BME280;50449;51.528;5.076;2022-12-10T00:23:31;100752.88;;;3.67;64.45
64158;BME280;50449;51.528;5.076;2022-12-10T00:28:36;100750.44;;;3.65;64.18
64158;BME280;50449;51.528;5.076;2022-12-10T00:31:22;100761.94;;;3.66;64.04
64158;BME280;50449;51.528;5.076;2022-12-10T00:33:49;100761.28;;;3.64;64.12
64158;BME280;50449;51.528;5.076;2022-12-10T00:36:17;100769.31;;;3.64;64.46
64158;BME280;50449;51.528;5.076;2022-12-10T00:38:43;100766.00;;;3.62;64.20
64158;BME280;50449;51.528;5.076;2022-12-10T00:41:10;100769.50;;;3.62;64.43
64158;BME280;50449;51.528;5.076;2022-12-10T00:43:35;100759.84;;;3.61;64.52
64158;BME280;50449;51.528;5.076;2022-12-10T00:46:01;100763.56;;;3.60;64.05
64158;BME280;50449;51.528;5.076;2022-12-10T00:48:27;100760.88;;;3.60;64.35
64158;BME280;50449;51.528;5.076;2022-12-10T00:51:08;100763.72;;;3.59;64.40
64158;BME280;50449;51.528;5.076;2022-12-10T00:53:35;100766.41;;;3.59;64.20
64158;BME280;50449;51.528;5.076;2022-12-10T00:56:01;100762.06;;;3.58;64.32
64158;BME280;50449;51.528;5.076;2022-12-10T00:58:30;100763.91;;;3.57;64.06
64158;BME280;50449;51.528;5.076;2022-12-10T01:01:12;100756.13;;;3.56;64.32
64158;BME280;50449;51.528;5.076;2022-12-10T01:03:38;100753.63;;;3.54;64.21
64158;BME280;50449;51.528;5.076;2022-12-10T01:06:15;100754.66;;;3.53;64.22
64158;BME280;50449;51.528;5.076;2022-12-10T01:08:42;100756.47;;;3.53;64.20
64158;BME280;50449;51.528;5.076;2022-12-10T01:11:09;100758.34;;;3.52;64.65
64158;BME280;50449;51.528;5.076;2022-12-10T01:13:35;100750.31;;;3.52;64.28
64158;BME280;50449;51.528;5.076;2022-12-10T01:16:03;100745.19;;;3.51;64.43
64158;BME280;50449;51.528;5.076;2022-12-10T01:18:29;100752.38;;;3.50;64.57
64158;BME280;50449;51.528;5.076;2022-12-10T01:20:55;100747.03;;;3.50;64.29
64158;BME280;50449;51.528;5.076;2022-12-10T01:23:20;100746.19;;;3.50;64.33
64158;BME280;50449;51.528;5.076;2022-12-10T01:25:45;100744.56;;;3.49;64.20
64158;BME280;50449;51.528;5.076;2022-12-10T01:28:11;100742.91;;;3.47;64.67
64158;BME280;50449;51.528;5.076;2022-12-10T01:30:36;100743.94;;;3.46;64.25
64158;BME280;50449;51.528;5.076;2022-12-10T01:33:01;100730.56;;;3.46;64.40
64158;BME280;50449;51.528;5.076;2022-12-10T01:35:27;100741.44;;;3.45;64.61
64158;BME280;50449;51.528;5.076;2022-12-10T01:37:52;100751.31;;;3.44;64.26
64158;BME280;50449;51.528;5.076;2022-12-10T01:40:18;100756.66;;;3.44;64.28
64158;BME280;50449;51.528;5.076;2022-12-10T01:42:43;100761.16;;;3.44;64.36
64158;BME280;50449;51.528;5.076;2022-12-10T01:45:11;100749.66;;;3.43;64.75
64158;BME280;50449;51.528;5.076;2022-12-10T01:47:37;100759.53;;;3.43;64.53
64158;BME280;50449;51.528;5.076;2022-12-10T01:50:06;100754.38;;;3.41;64.50
64158;BME280;50449;51.528;5.076;2022-12-10T01:52:31;100758.06;;;3.40;64.44
64158;BME280;50449;51.528;5.076;2022-12-10T01:54:57;100758.06;;;3.40;64.35
64158;BME280;50449;51.528;5.076;2022-12-10T01:57:24;100761.56;;;3.41;64.47
64158;BME280;50449;51.528;5.076;2022-12-10T01:59:57;100761.56;;;3.41;64.70
64158;BME280;50449;51.528;5.076;2022-12-10T02:02:41;100761.75;;;3.39;64.71
64158;BME280;50449;51.528;5.076;2022-12-10T02:05:28;100767.09;;;3.39;64.46
64158;BME280;50449;51.528;5.076;2022-12-10T02:08:08;100767.31;;;3.38;64.59
64158;BME280;50449;51.528;5.076;2022-12-10T02:13:19;100773.84;;;3.35;64.04
64158;BME280;50449;51.528;5.076;2022-12-10T02:15:59;100781.88;;;3.35;64.28
64158;BME280;50449;51.528;5.076;2022-12-10T02:18:31;100784.53;;;3.35;64.56
64158;BME280;50449;51.528;5.076;2022-12-10T02:21:16;100787.22;;;3.35;64.31
64158;BME280;50449;51.528;5.076;2022-12-10T02:23:49;100781.00;;;3.35;64.27
64158;BME280;50449;51.528;5.076;2022-12-10T02:29:12;100785.75;;;3.33;64.52
64158;BME280;50449;51.528;5.076;2022-12-10T02:31:42;100782.22;;;3.32;64.67
64158;BME280;50449;51.528;5.076;2022-12-10T02:34:10;100784.91;;;3.32;64.89
64158;BME280;50449;51.528;5.076;2022-12-10T02:36:38;100781.41;;;3.32;64.54
64158;BME280;50449;51.528;5.076;2022-12-10T02:39:09;100784.09;;;3.32;64.54
64158;BME280;50449;51.528;5.076;2022-12-10T02:41:39;100790.25;;;3.32;64.70
64158;BME280;50449;51.528;5.076;2022-12-10T02:44:09;100786.75;;;3.32;64.53
64158;BME280;50449;51.528;5.076;2022-12-10T02:46:36;100788.59;;;3.31;64.59
64158;BME280;50449;51.528;5.076;2022-12-10T02:49:06;100782.44;;;3.31;64.81
64158;BME280;50449;51.528;5.076;2022-12-10T02:51:32;100785.94;;;3.31;64.72
64158;BME280;50449;51.528;5.076;2022-12-10T02:54:02;100779.78;;;3.31;64.61
64158;BME280;50449;51.528;5.076;2022-12-10T02:56:43;100775.25;;;3.31;64.58
64158;BME280;50449;51.528;5.076;2022-12-10T02:59:24;100779.94;;;3.29;64.73
64158;BME280;50449;51.528;5.076;2022-12-10T03:04:24;100774.63;;;3.29;64.90
64158;BME280;50449;51.528;5.076;2022-12-10T03:06:59;100776.47;;;3.29;64.39
64158;BME280;50449;51.528;5.076;2022-12-10T03:09:38;100772.97;;;3.28;64.51
64158;BME280;50449;51.528;5.076;2022-12-10T03:12:17;100769.28;;;3.29;64.46
64158;BME280;50449;51.528;5.076;2022-12-10T03:14:45;100769.50;;;3.28;64.49
64158;BME280;50449;51.528;5.076;2022-12-10T03:17:13;100767.63;;;3.28;65.08
64158;BME280;50449;51.528;5.076;2022-12-10T03:19:45;100773.97;;;3.27;64.74
64158;BME280;50449;51.528;5.076;2022-12-10T03:22:14;100776.66;;;3.27;64.84
64158;BME280;50449;51.528;5.076;2022-12-10T03:24:42;100769.50;;;3.28;64.51
64158;BME280;50449;51.528;5.076;2022-12-10T03:27:09;100776.66;;;3.27;64.66
64158;BME280;50449;51.528;5.076;2022-12-10T03:29:41;100772.16;;;3.28;64.55
64158;BME280;50449;51.528;5.076;2022-12-10T03:32:10;100776.66;;;3.27;64.72
64158;BME280;50449;51.528;5.076;2022-12-10T03:34:36;100775.00;;;3.26;64.47
64158;BME280;50449;51.528;5.076;2022-12-10T03:37:03;100779.53;;;3.25;64.91
64158;BME280;50449;51.528;5.076;2022-12-10T03:39:29;100778.69;;;3.25;64.84
64158;BME280;50449;51.528;5.076;2022-12-10T03:41:54;100778.69;;;3.25;64.72
64158;BME280;50449;51.528;5.076;2022-12-10T03:44:37;100778.69;;;3.25;64.53
64158;BME280;50449;51.528;5.076;2022-12-10T03:47:05;100780.53;;;3.24;64.76
64158;BME280;50449;51.528;5.076;2022-12-10T03:49:31;100780.53;;;3.24;64.64
64158;BME280;50449;51.528;5.076;2022-12-10T03:51:57;100781.34;;;3.25;64.95
64158;BME280;50449;51.528;5.076;2022-12-10T03:54:22;100780.53;;;3.24;64.89
64158;BME280;50449;51.528;5.076;2022-12-10T03:56:48;100789.34;;;3.25;64.53
64158;BME280;50449;51.528;5.076;2022-12-10T03:59:13;100785.06;;;3.24;64.46
64158;BME280;50449;51.528;5.076;2022-12-10T04:01:40;100786.91;;;3.23;64.96
64158;BME280;50449;51.528;5.076;2022-12-10T04:04:05;100783.41;;;3.23;64.55
64158;BME280;50449;51.528;5.076;2022-12-10T04:06:31;100787.09;;;3.22;64.79
64158;BME280;50449;51.528;5.076;2022-12-10T04:08:57;100787.09;;;3.22;64.61
64158;BME280;50449;51.528;5.076;2022-12-10T04:11:22;100784.22;;;3.23;64.49
64158;BME280;50449;51.528;5.076;2022-12-10T04:13:48;100790.56;;;3.22;64.84
64158;BME280;50449;51.528;5.076;2022-12-10T04:16:34;100794.09;;;3.23;64.56
64158;BME280;50449;51.528;5.076;2022-12-10T04:19:11;100779.06;;;3.22;64.89
64158;BME280;50449;51.528;5.076;2022-12-10T04:21:38;100790.78;;;3.21;64.58
64158;BME280;50449;51.528;5.076;2022-12-10T04:24:25;100788.28;;;3.19;64.69
64158;BME280;50449;51.528;5.076;2022-12-10T04:27:21;100791.78;;;3.20;64.78
64158;BME280;50449;51.528;5.076;2022-12-10T04:29:47;100785.63;;;3.19;64.65
64158;BME280;50449;51.528;5.076;2022-12-10T04:32:12;100790.97;;;3.19;65.04
64158;BME280;50449;51.528;5.076;2022-12-10T04:34:38;100796.31;;;3.19;64.63
64158;BME280;50449;51.528;5.076;2022-12-10T04:37:04;100803.50;;;3.19;64.94
64158;BME280;50449;51.528;5.076;2022-12-10T04:39:30;100806.16;;;3.19;65.04
64158;BME280;50449;51.528;5.076;2022-12-10T04:41:55;100806.34;;;3.17;64.57
64158;BME280;50449;51.528;5.076;2022-12-10T04:44:21;100807.19;;;3.18;64.96
64158;BME280;50449;51.528;5.076;2022-12-10T04:46:46;100804.53;;;3.18;64.60
64158;BME280;50449;51.528;5.076;2022-12-10T04:49:13;100797.50;;;3.17;64.80
64158;BME280;50449;51.528;5.076;2022-12-10T04:51:39;100803.66;;;3.17;64.79
64158;BME280;50449;51.528;5.076;2022-12-10T04:54:05;100794.84;;;3.17;64.76
64158;BME280;50449;51.528;5.076;2022-12-10T04:56:30;100809.00;;;3.17;64.66
64158;BME280;50449;51.528;5.076;2022-12-10T04:58:56;100806.34;;;3.17;64.73
64158;BME280;50449;51.528;5.076;2022-12-10T05:01:22;100808.00;;;3.18;64.92
64158;BME280;50449;51.528;5.076;2022-12-10T05:03:47;100813.34;;;3.18;64.89
64158;BME280;50449;51.528;5.076;2022-12-10T05:06:14;100811.69;;;3.17;64.95
64158;BME280;50449;51.528;5.076;2022-12-10T05:08:41;100806.34;;;3.17;65.04
64158;BME280;50449;51.528;5.076;2022-12-10T05:11:09;100805.53;;;3.17;64.70
64158;BME280;50449;51.528;5.076;2022-12-10T05:13:35;100804.69;;;3.16;64.60
64158;BME280;50449;51.528;5.076;2022-12-10T05:16:02;100800.19;;;3.17;64.71
64158;BME280;50449;51.528;5.076;2022-12-10T05:18:27;100803.88;;;3.16;64.63
64158;BME280;50449;51.528;5.076;2022-12-10T05:20:53;100798.53;;;3.16;65.09
64158;BME280;50449;51.528;5.076;2022-12-10T05:23:18;100802.03;;;3.16;64.86
64158;BME280;50449;51.528;5.076;2022-12-10T05:28:25;100806.56;;;3.16;64.68
64158;BME280;50449;51.528;5.076;2022-12-10T05:30:50;100807.56;;;3.15;64.66
64158;BME280;50449;51.528;5.076;2022-12-10T05:33:16;100807.56;;;3.15;64.79
64158;BME280;50449;51.528;5.076;2022-12-10T05:35:41;100808.59;;;3.14;64.78
64158;BME280;50449;51.528;5.076;2022-12-10T05:38:09;100804.06;;;3.14;64.99
64158;BME280;50449;51.528;5.076;2022-12-10T05:40:38;100801.41;;;3.14;64.96
64158;BME280;50449;51.528;5.076;2022-12-10T05:43:04;100801.41;;;3.14;64.91
64158;BME280;50449;51.528;5.076;2022-12-10T05:45:31;100805.91;;;3.14;65.15
64158;BME280;50449;51.528;5.076;2022-12-10T05:47:57;100806.72;;;3.14;65.00
64158;BME280;50449;51.528;5.076;2022-12-10T05:50:22;100813.09;;;3.13;64.71
64158;BME280;50449;51.528;5.076;2022-12-10T05:52:50;100808.75;;;3.12;65.10
64158;BME280;50449;51.528;5.076;2022-12-10T05:55:15;100811.44;;;3.12;65.02
64158;BME280;50449;51.528;5.076;2022-12-10T05:57:41;100811.44;;;3.12;64.82
64158;BME280;50449;51.528;5.076;2022-12-10T06:00:07;100819.44;;;3.12;64.90
64158;BME280;50449;51.528;5.076;2022-12-10T06:02:33;100820.28;;;3.13;65.02
64158;BME280;50449;51.528;5.076;2022-12-10T06:04:58;100817.78;;;3.11;65.18
64158;BME280;50449;51.528;5.076;2022-12-10T06:07:24;100817.78;;;3.11;64.86
64158;BME280;50449;51.528;5.076;2022-12-10T06:09:49;100823.13;;;3.11;64.77
64158;BME280;50449;51.528;5.076;2022-12-10T06:12:14;100820.47;;;3.11;64.90
64158;BME280;50449;51.528;5.076;2022-12-10T06:14:40;100816.16;;;3.10;65.17
64158;BME280;50449;51.528;5.076;2022-12-10T06:17:05;100817.78;;;3.11;64.66
64158;BME280;50449;51.528;5.076;2022-12-10T06:19:30;100817.97;;;3.10;64.74
64158;BME280;50449;51.528;5.076;2022-12-10T06:21:56;100820.66;;;3.10;64.74
64158;BME280;50449;51.528;5.076;2022-12-10T06:24:24;100823.31;;;3.10;64.71
64158;BME280;50449;51.528;5.076;2022-12-10T06:26:49;100825.97;;;3.10;64.68
64158;BME280;50449;51.528;5.076;2022-12-10T06:29:14;100825.97;;;3.10;64.71
64158;BME280;50449;51.528;5.076;2022-12-10T06:31:40;100824.16;;;3.10;64.78
64158;BME280;50449;51.528;5.076;2022-12-10T06:34:05;100836.66;;;3.10;64.83
64158;BME280;50449;51.528;5.076;2022-12-10T06:36:30;100831.31;;;3.10;65.08
64158;BME280;50449;51.528;5.076;2022-12-10T06:38:56;100830.50;;;3.09;64.88
64158;BME280;50449;51.528;5.076;2022-12-10T06:41:21;100830.50;;;3.09;65.07
64158;BME280;50449;51.528;5.076;2022-12-10T06:43:48;100844.66;;;3.10;65.04
64158;BME280;50449;51.528;5.076;2022-12-10T06:46:15;100849.19;;;3.09;65.11
64158;BME280;50449;51.528;5.076;2022-12-10T06:48:42;100844.88;;;3.08;64.97
64158;BME280;50449;51.528;5.076;2022-12-10T06:51:08;100846.50;;;3.09;65.16
64158;BME280;50449;51.528;5.076;2022-12-10T06:53:34;100851.03;;;3.09;64.71
64158;BME280;50449;51.528;5.076;2022-12-10T06:56:01;100850.22;;;3.08;64.80
64158;BME280;50449;51.528;5.076;2022-12-10T06:58:28;100860.06;;;3.08;65.04
64158;BME280;50449;51.528;5.076;2022-12-10T07:00:54;100857.41;;;3.08;65.04
64158;BME280;50449;51.528;5.076;2022-12-10T07:03:19;100859.22;;;3.07;65.20
64158;BME280;50449;51.528;5.076;2022-12-10T07:05:44;100860.06;;;3.08;65.09
64158;BME280;50449;51.528;5.076;2022-12-10T07:08:10;100860.06;;;3.08;64.97
64158;BME280;50449;51.528;5.076;2022-12-10T07:10:37;100861.06;;;3.07;64.85
64158;BME280;50449;51.528;5.076;2022-12-10T07:13:02;100861.06;;;3.07;64.97
64158;BME280;50449;51.528;5.076;2022-12-10T07:15:27;100870.09;;;3.06;65.00
64158;BME280;50449;51.528;5.076;2022-12-10T07:17:53;100870.91;;;3.06;65.18
64158;BME280;50449;51.528;5.076;2022-12-10T07:20:19;100867.44;;;3.06;65.19
64158;BME280;50449;51.528;5.076;2022-12-10T07:22:44;100866.59;;;3.05;65.02
64158;BME280;50449;51.528;5.076;2022-12-10T07:25:10;100870.09;;;3.06;65.07
64158;BME280;50449;51.528;5.076;2022-12-10T07:27:35;100860.25;;;3.06;65.01
64158;BME280;50449;51.528;5.076;2022-12-10T07:30:01;100862.28;;;3.04;64.93
64158;BME280;50449;51.528;5.076;2022-12-10T07:32:27;100861.44;;;3.03;64.83
64158;BME280;50449;51.528;5.076;2022-12-10T07:34:53;100866.59;;;3.05;65.01
64158;BME280;50449;51.528;5.076;2022-12-10T07:37:18;100866.59;;;3.05;65.00
64158;BME280;50449;51.528;5.076;2022-12-10T07:39:43;100867.44;;;3.06;64.68
64158;BME280;50449;51.528;5.076;2022-12-10T07:42:09;100866.59;;;3.05;64.90
64158;BME280;50449;51.528;5.076;2022-12-10T07:44:34;100871.09;;;3.04;65.09
64158;BME280;50449;51.528;5.076;2022-12-10T07:47:00;100872.94;;;3.04;64.79
64158;BME280;50449;51.528;5.076;2022-12-10T07:49:25;100879.09;;;3.04;65.12
64158;BME280;50449;51.528;5.076;2022-12-10T07:51:51;100886.28;;;3.04;65.19
64158;BME280;50449;51.528;5.076;2022-12-10T07:54:17;100890.00;;;3.03;64.80
64158;BME280;50449;51.528;5.076;2022-12-10T07:56:44;100890.81;;;3.03;64.75
64158;BME280;50449;51.528;5.076;2022-12-10T07:59:09;100879.09;;;3.04;64.93
64158;BME280;50449;51.528;5.076;2022-12-10T08:01:35;100888.13;;;3.03;65.06
64158;BME280;50449;51.528;5.076;2022-12-10T08:04:01;100887.50;;;3.01;64.96
64158;BME280;50449;51.528;5.076;2022-12-10T08:06:28;100894.50;;;3.02;65.13
64158;BME280;50449;51.528;5.076;2022-12-10T08:08:53;100893.66;;;3.02;65.11
64158;BME280;50449;51.528;5.076;2022-12-10T08:11:20;100900.66;;;3.03;64.90
64158;BME280;50449;51.528;5.076;2022-12-10T08:13:46;100902.50;;;3.02;65.25
64158;BME280;50449;51.528;5.076;2022-12-10T08:16:14;100911.50;;;3.01;65.04
64158;BME280;50449;51.528;5.076;2022-12-10T08:18:40;100909.66;;;3.02;64.85
64158;BME280;50449;51.528;5.076;2022-12-10T08:21:14;100908.03;;;3.01;65.23
64158;BME280;50449;51.528;5.076;2022-12-10T08:23:41;100909.88;;;3.00;65.05
64158;BME280;50449;51.528;5.076;2022-12-10T08:26:12;100912.53;;;3.00;64.75
64158;BME280;50449;51.528;5.076;2022-12-10T08:28:38;100912.53;;;3.00;64.96
64158;BME280;50449;51.528;5.076;2022-12-10T08:31:04;100917.06;;;3.00;65.26
64158;BME280;50449;51.528;5.076;2022-12-10T08:33:33;100920.53;;;3.00;65.12
64158;BME280;50449;51.528;5.076;2022-12-10T08:35:59;100921.53;;;2.99;65.14
64158;BME280;50449;51.528;5.076;2022-12-10T08:38:25;100932.44;;;2.98;65.11
64158;BME280;50449;51.528;5.076;2022-12-10T08:40:50;100929.75;;;2.98;65.16
64158;BME280;50449;51.528;5.076;2022-12-10T08:43:16;100926.28;;;2.97;65.07
64158;BME280;50449;51.528;5.076;2022-12-10T08:45:41;100929.75;;;2.98;64.95
64158;BME280;50449;51.528;5.076;2022-12-10T08:48:07;100936.09;;;2.97;65.16
64158;BME280;50449;51.528;5.076;2022-12-10T08:50:32;100939.59;;;2.97;65.30
64158;BME280;50449;51.528;5.076;2022-12-10T08:52:57;100928.94;;;2.97;65.18
64158;BME280;50449;51.528;5.076;2022-12-10T08:55:23;100935.91;;;2.98;65.19
64158;BME280;50449;51.528;5.076;2022-12-10T08:57:48;100933.41;;;2.97;65.26
64158;BME280;50449;51.528;5.076;2022-12-10T09:00:14;100936.94;;;2.97;64.85
64158;BME280;50449;51.528;5.076;2022-12-10T09:02:39;100936.94;;;2.97;64.89
64158;BME280;50449;51.528;5.076;2022-12-10T09:05:05;100943.09;;;2.98;64.85
64158;BME280;50449;51.528;5.076;2022-12-10T09:07:31;100948.44;;;2.98;65.12
64158;BME280;50449;51.528;5.076;2022-12-10T09:09:59;100949.25;;;2.98;65.09
64158;BME280;50449;51.528;5.076;2022-12-10T09:12:25;100949.25;;;2.98;64.95
64158;BME280;50449;51.528;5.076;2022-12-10T09:14:51;100949.25;;;2.98;65.13
64158;BME280;50449;51.528;5.076;2022-12-10T09:17:16;100950.28;;;2.97;65.23
64158;BME280;50449;51.528;5.076;2022-12-10T09:19:41;100951.09;;;2.98;64.96
64158;BME280;50449;51.528;5.076;2022-12-10T09:22:07;100950.06;;;2.99;65.21
64158;BME280;50449;51.528;5.076;2022-12-10T09:24:33;100952.94;;;2.97;64.94
64158;BME280;50449;51.528;5.076;2022-12-10T09:27:00;100957.25;;;2.98;64.82
64158;BME280;50449;51.528;5.076;2022-12-10T09:29:25;100958.28;;;2.97;65.17
64158;BME280;50449;51.528;5.076;2022-12-10T09:31:51;100959.94;;;2.98;64.89
64158;BME280;50449;51.528;5.076;2022-12-10T09:34:17;100967.13;;;2.98;65.36
64158;BME280;50449;51.528;5.076;2022-12-10T09:36:42;100961.78;;;2.98;64.85
64158;BME280;50449;51.528;5.076;2022-12-10T09:39:08;100965.25;;;2.98;64.94
64158;BME280;50449;51.528;5.076;2022-12-10T09:41:56;100963.63;;;2.97;64.90
64158;BME280;50449;51.528;5.076;2022-12-10T09:44:53;100957.25;;;2.98;65.10
64158;BME280;50449;51.528;5.076;2022-12-10T09:47:15;100966.28;;;2.97;65.00
64158;BME280;50449;51.528;5.076;2022-12-10T09:52:14;100960.97;;;2.97;65.10
64158;BME280;50449;51.528;5.076;2022-12-10T09:55:00;100959.28;;;2.96;65.36
64158;BME280;50449;51.528;5.076;2022-12-10T09:57:36;100961.13;;;2.96;65.19
64158;BME280;50449;51.528;5.076;2022-12-10T10:02:42;100972.63;;;2.96;64.97
64158;BME280;50449;51.528;5.076;2022-12-10T10:07:37;100971.97;;;2.94;65.03
64158;BME280;50449;51.528;5.076;2022-12-10T10:10:07;100979.16;;;2.94;65.20
64158;BME280;50449;51.528;5.076;2022-12-10T10:12:41;100976.31;;;2.95;65.29
64158;BME280;50449;51.528;5.076;2022-12-10T10:15:16;100979.00;;;2.95;65.26
64158;BME280;50449;51.528;5.076;2022-12-10T10:17:44;100984.31;;;2.95;65.03
64158;BME280;50449;51.528;5.076;2022-12-10T10:20:13;100973.66;;;2.95;65.22
64158;BME280;50449;51.528;5.076;2022-12-10T10:22:40;100984.97;;;2.97;65.40
64158;BME280;50449;51.528;5.076;2022-12-10T10:25:13;100983.13;;;2.98;65.05
64158;BME280;50449;51.528;5.076;2022-12-10T10:27:39;100972.44;;;2.98;65.05
64158;BME280;50449;51.528;5.076;2022-12-10T10:30:06;100977.78;;;2.98;65.04
64158;BME280;50449;51.528;5.076;2022-12-10T10:35:01;100979.44;;;2.99;65.30
64158;BME280;50449;51.528;5.076;2022-12-10T10:37:47;100989.28;;;2.98;65.10
64158;BME280;50449;51.528;5.076;2022-12-10T10:40:22;100988.25;;;2.99;65.24
64158;BME280;50449;51.528;5.076;2022-12-10T10:42:52;100989.28;;;2.98;65.11
64158;BME280;50449;51.528;5.076;2022-12-10T10:45:41;100996.25;;;2.99;65.31
64158;BME280;50449;51.528;5.076;2022-12-10T10:48:18;100993.59;;;2.99;65.44
64158;BME280;50449;51.528;5.076;2022-12-10T10:50:53;100983.94;;;2.98;65.16
64158;BME280;50449;51.528;5.076;2022-12-10T10:54:30;100982.09;;;2.99;65.27
64158;BME280;50449;51.528;5.076;2022-12-10T10:56:29;100980.25;;;2.99;65.36
64158;BME280;50449;51.528;5.076;2022-12-10T10:59:05;100987.25;;;3.00;65.43
64158;BME280;50449;51.528;5.076;2022-12-10T11:01:52;100981.09;;;3.00;65.01
64158;BME280;50449;51.528;5.076;2022-12-10T11:07:02;100988.91;;;3.01;65.33
64158;BME280;50449;51.528;5.076;2022-12-10T11:09:31;100980.91;;;3.01;65.44
64158;BME280;50449;51.528;5.076;2022-12-10T11:12:02;100974.75;;;3.01;65.52
64158;BME280;50449;51.528;5.076;2022-12-10T11:14:39;100973.72;;;3.02;65.03
64158;BME280;50449;51.528;5.076;2022-12-10T11:19:36;100965.72;;;3.02;65.13
64158;BME280;50449;51.528;5.076;2022-12-10T11:22:21;100972.72;;;3.03;65.21
64158;BME280;50449;51.528;5.076;2022-12-10T11:24:48;100967.38;;;3.03;65.13
64158;BME280;50449;51.528;5.076;2022-12-10T11:30:00;100965.53;;;3.03;65.56
64158;BME280;50449;51.528;5.076;2022-12-10T11:35:24;100967.16;;;3.04;65.10
64158;BME280;50449;51.528;5.076;2022-12-10T11:38:09;100973.38;;;3.05;65.55
64158;BME280;50449;51.528;5.076;2022-12-10T11:54:55;100963.88;;;3.02;65.56
64158;BME280;50449;51.528;5.076;2022-12-10T12:11:04;100964.31;;;3.06;65.36
64158;BME280;50449;51.528;5.076;2022-12-10T12:16:58;100966.81;;;3.08;65.19
64158;BME280;50449;51.528;5.076;2022-12-10T12:19:33;100959.81;;;3.07;65.38
64158;BME280;50449;51.528;5.076;2022-12-10T12:22:24;100966.81;;;3.08;65.25
64158;BME280;50449;51.528;5.076;2022-12-10T12:24:56;100963.31;;;3.07;65.28
64158;BME280;50449;51.528;5.076;2022-12-10T12:27:32;100957.78;;;3.09;65.64
64158;BME280;50449;51.528;5.076;2022-12-10T12:30:06;100966.63;;;3.09;65.60
64158;BME280;50449;51.528;5.076;2022-12-10T12:32:49;100969.50;;;3.08;65.48
64158;BME280;50449;51.528;5.076;2022-12-10T12:38:18;100961.47;;;3.08;65.68
64158;BME280;50449;51.528;5.076;2022-12-10T12:40:54;100963.13;;;3.09;65.78
64158;BME280;50449;51.528;5.076;2022-12-10T12:43:24;100961.47;;;3.08;65.51
64158;BME280;50449;51.528;5.076;2022-12-10T12:45:53;100965.78;;;3.09;65.56
64158;BME280;50449;51.528;5.076;2022-12-10T12:48:34;100963.94;;;3.09;65.49
64158;BME280;50449;51.528;5.076;2022-12-10T12:51:09;100963.13;;;3.09;65.75
64158;BME280;50449;51.528;5.076;2022-12-10T12:53:35;100962.09;;;3.10;65.54
64158;BME280;50449;51.528;5.076;2022-12-10T13:01:37;100961.91;;;3.11;65.74
64158;BME280;50449;51.528;5.076;2022-12-10T13:04:05;100969.94;;;3.11;65.79
64158;BME280;50449;51.528;5.076;2022-12-10T13:06:36;100967.25;;;3.11;65.90
64158;BME280;50449;51.528;5.076;2022-12-10T13:11:41;100970.56;;;3.13;65.89
64158;BME280;50449;51.528;5.076;2022-12-10T13:16:36;100976.56;;;3.15;65.96
64158;BME280;50449;51.528;5.076;2022-12-10T13:24:22;100979.22;;;3.15;65.85
64158;BME280;50449;51.528;5.076;2022-12-10T13:29:55;100980.88;;;3.16;66.06
64158;BME280;50449;51.528;5.076;2022-12-10T13:42:43;100980.88;;;3.16;65.70
64158;BME280;50449;51.528;5.076;2022-12-10T13:45:31;100979.84;;;3.17;65.87
64158;BME280;50449;51.528;5.076;2022-12-10T13:56:08;100988.88;;;3.16;65.82
64158;BME280;50449;51.528;5.076;2022-12-10T14:04:01;100992.38;;;3.17;65.84
64158;BME280;50449;51.528;5.076;2022-12-10T14:06:36;100999.38;;;3.18;65.94
64158;BME280;50449;51.528;5.076;2022-12-10T14:09:08;100996.50;;;3.19;65.84
64158;BME280;50449;51.528;5.076;2022-12-10T14:12:01;100998.34;;;3.19;65.89
64158;BME280;50449;51.528;5.076;2022-12-10T14:14:32;101000.00;;;3.20;65.75
64158;BME280;50449;51.528;5.076;2022-12-10T14:17:14;101005.34;;;3.20;66.01
64158;BME280;50449;51.528;5.076;2022-12-10T14:19:41;100997.31;;;3.20;65.90
64158;BME280;50449;51.528;5.076;2022-12-10T14:22:08;101000.84;;;3.20;65.83
64158;BME280;50449;51.528;5.076;2022-12-10T14:24:39;101004.97;;;3.23;65.72
64158;BME280;50449;51.528;5.076;2022-12-10T14:27:19;101004.97;;;3.23;66.03
64158;BME280;50449;51.528;5.076;2022-12-10T14:29:51;101001.28;;;3.24;65.96
64158;BME280;50449;51.528;5.076;2022-12-10T14:32:19;101009.28;;;3.24;65.77
64158;BME280;50449;51.528;5.076;2022-12-10T14:34:49;101002.09;;;3.24;65.61
64158;BME280;50449;51.528;5.076;2022-12-10T14:37:18;101003.94;;;3.24;65.77
64158;BME280;50449;51.528;5.076;2022-12-10T14:39:46;100995.13;;;3.23;65.90
64158;BME280;50449;51.528;5.076;2022-12-10T14:42:14;101007.44;;;3.24;65.76
64158;BME280;50449;51.528;5.076;2022-12-10T14:44:41;101001.28;;;3.24;65.53
64158;BME280;50449;51.528;5.076;2022-12-10T14:47:16;101008.25;;;3.25;65.78
64158;BME280;50449;51.528;5.076;2022-12-10T14:49:47;101008.25;;;3.25;65.78
64158;BME280;50449;51.528;5.076;2022-12-10T14:52:21;101012.59;;;3.26;65.94
64158;BME280;50449;51.528;5.076;2022-12-10T14:54:47;101022.47;;;3.25;66.18
64158;BME280;50449;51.528;5.076;2022-12-10T14:59:54;101023.47;;;3.24;66.00
64158;BME280;50449;51.528;5.076;2022-12-10T15:02:28;101022.63;;;3.24;65.75
64158;BME280;50449;51.528;5.076;2022-12-10T15:04:55;101019.78;;;3.25;65.99